Time;durP1;ratioP1;P1;durP2;ratioP2;P2;SDS_P1;SDS_P2;PMS_P1;PMS_P2;Temp;Humidity;BMP_temperature;BMP_pressure;BME280_temperature;BME280_humidity;BME280_pressure;Samples;Min_cycle;Max_cycle;Signal;HPM_P1;HPM_P2
2022/02/27 00:02:16;;;;;;;20.67;5.55;;;-1.00;99.90;;;;;;5090988;28;20044;-80
2022/02/27 00:05:04;;;;;;;18.50;5.40;;;-1.00;99.90;;;;;;5095444;28;20082;-80
2022/02/27 00:07:51;;;;;;;16.95;5.00;;;-1.10;99.90;;;;;;5080947;28;20072;-83
2022/02/27 00:10:40;;;;;;;20.65;5.97;;;-1.30;99.90;;;;;;5094577;28;20044;-81
2022/02/27 00:13:27;;;;;;;17.50;6.00;;;-1.40;99.90;;;;;;5083198;28;20140;-81
2022/02/27 00:16:14;;;;;;;18.40;6.03;;;-1.40;99.90;;;;;;5095258;28;20128;-81
2022/02/27 00:19:02;;;;;;;24.88;5.45;;;-1.50;99.90;;;;;;5080917;28;20044;-81
2022/02/27 00:21:52;;;;;;;16.63;5.25;;;-1.60;99.90;;;;;;5095876;28;20117;-81
2022/02/27 00:24:39;;;;;;;21.80;5.93;;;-1.60;99.90;;;;;;5080061;28;20470;-80
2022/02/27 00:27:26;;;;;;;19.48;5.75;;;-1.70;99.90;;;;;;5102170;28;20188;-81
2022/02/27 00:30:15;;;;;;;17.30;5.10;;;-1.60;99.90;;;;;;5096271;28;20059;-81
2022/02/27 00:33:05;;;;;;;20.52;5.65;;;-1.50;99.90;;;;;;5099702;28;20047;-80
2022/02/27 00:35:54;;;;;;;12.85;5.15;;;-1.40;99.90;;;;;;5083709;28;20167;-81
2022/02/27 00:38:42;;;;;;;26.45;6.07;;;-1.50;99.90;;;;;;5097863;28;20429;-81
2022/02/27 00:41:29;;;;;;;25.17;5.07;;;-1.50;99.90;;;;;;5083213;28;20524;-81
2022/02/27 00:44:16;;;;;;;17.95;5.68;;;-1.50;99.90;;;;;;5101696;28;20464;-80
2022/02/27 00:47:06;;;;;;;20.63;5.07;;;-1.50;99.90;;;;;;5100603;28;20404;-80
2022/02/27 00:49:53;;;;;;;20.50;6.13;;;-1.50;99.90;;;;;;5097191;28;20070;-83
2022/02/27 00:52:42;;;;;;;22.60;5.63;;;-1.50;99.90;;;;;;5092849;28;20047;-79
2022/02/27 00:55:29;;;;;;;28.70;5.70;;;-1.40;99.90;;;;;;5094282;28;20127;-81
2022/02/27 00:58:16;;;;;;;19.70;5.25;;;-1.40;99.90;;;;;;5086817;28;20044;-81
2022/02/27 01:01:03;;;;;;;24.17;5.28;;;-1.40;99.90;;;;;;5099792;28;20039;-81
2022/02/27 01:03:52;;;;;;;17.95;5.53;;;-1.30;99.90;;;;;;5091270;28;20113;-81
2022/02/27 01:06:39;;;;;;;14.13;4.57;;;-1.20;99.90;;;;;;5077106;28;20079;-81
2022/02/27 01:09:26;;;;;;;23.50;5.22;;;-1.10;99.90;;;;;;5091651;28;20074;-81
2022/02/27 01:12:13;;;;;;;17.10;5.20;;;-1.10;99.90;;;;;;5097359;28;20059;-81
2022/02/27 01:15:03;;;;;;;18.63;5.07;;;-1.20;99.90;;;;;;5098211;28;20087;-81
2022/02/27 01:17:50;;;;;;;33.03;5.90;;;-1.20;99.90;;;;;;5100834;28;20143;-80
2022/02/27 01:20:37;;;;;;;20.23;4.85;;;-1.10;99.90;;;;;;5102168;28;20112;-81
2022/02/27 01:23:25;;;;;;;16.15;4.40;;;-1.10;99.90;;;;;;5098515;28;20396;-79
2022/02/27 01:26:14;;;;;;;18.65;4.85;;;-1.10;99.90;;;;;;5103498;28;20153;-80
2022/02/27 01:29:02;;;;;;;28.08;5.35;;;-1.10;99.90;;;;;;5096231;28;20265;-80
2022/02/27 01:31:52;;;;;;;19.55;5.20;;;-1.10;99.90;;;;;;5098121;28;20184;-81
2022/02/27 01:34:39;;;;;;;19.67;5.32;;;-1.10;99.90;;;;;;5086507;28;20122;-82
2022/02/27 01:37:28;;;;;;;23.10;5.72;;;-1.10;99.90;;;;;;5104349;28;20061;-82
2022/02/27 01:40:15;;;;;;;26.52;5.32;;;-1.10;99.90;;;;;;5082394;28;20123;-81
2022/02/27 01:43:03;;;;;;;19.77;5.15;;;-1.20;99.90;;;;;;5098009;28;20140;-81
2022/02/27 01:45:50;;;;;;;24.08;5.70;;;-1.30;99.90;;;;;;5081708;28;20152;-82
2022/02/27 01:48:38;;;;;;;17.88;4.78;;;-1.20;99.90;;;;;;5081793;28;20097;-81
2022/02/27 01:51:28;;;;;;;20.70;5.47;;;-1.20;99.90;;;;;;5079313;28;20084;-80
2022/02/27 01:54:15;;;;;;;18.42;5.25;;;-1.20;99.90;;;;;;5082207;28;20082;-82
2022/02/27 01:57:03;;;;;;;25.52;5.97;;;-1.10;99.90;;;;;;5094800;28;20059;-82
2022/02/27 01:59:52;;;;;;;21.88;5.13;;;-1.10;99.90;;;;;;5098112;27;20530;-80
2022/02/27 02:02:43;;;;;;;20.00;5.10;;;-1.20;99.90;;;;;;5093361;28;20346;-81
2022/02/27 02:05:30;;;;;;;21.15;6.35;;;-1.20;99.90;;;;;;5102630;28;20131;-81
2022/02/27 02:08:18;;;;;;;21.50;5.25;;;-1.20;99.90;;;;;;5098925;28;20055;-80
2022/02/27 02:11:05;;;;;;;16.15;5.53;;;-1.20;99.90;;;;;;5096560;28;20040;-82
2022/02/27 02:13:53;;;;;;;16.73;5.60;;;-1.20;99.90;;;;;;5096668;28;20048;-80
2022/02/27 02:16:47;;;;;;;23.77;5.70;;;-1.20;99.90;;;;;;5097950;28;20142;-80
2022/02/27 02:19:35;;;;;;;25.85;6.03;;;-1.20;99.90;;;;;;5103645;28;20108;-81
2022/02/27 02:22:22;;;;;;;20.95;5.50;;;-1.30;99.90;;;;;;5094947;28;20059;-82
2022/02/27 02:25:10;;;;;;;15.35;5.38;;;-1.30;99.90;;;;;;5099345;28;20123;-82
2022/02/27 02:27:58;;;;;;;14.63;5.25;;;-1.30;99.90;;;;;;5081366;28;20055;-82
2022/02/27 02:30:45;;;;;;;24.50;6.10;;;-1.40;99.90;;;;;;5080423;28;20052;-82
2022/02/27 02:33:37;;;;;;;23.55;5.65;;;-1.50;99.90;;;;;;5098778;28;20136;-80
2022/02/27 02:36:26;;;;;;;8.98;4.00;;;-1.60;99.90;;;;;;5080334;28;20469;-82
2022/02/27 02:39:20;;;;;;;18.88;5.68;;;-1.60;99.90;;;;;;5094990;28;20129;-82
2022/02/27 02:42:09;;;;;;;22.02;6.93;;;-1.60;99.90;;;;;;5100105;28;20073;-82
2022/02/27 02:44:57;;;;;;;21.77;5.75;;;-1.60;99.90;;;;;;5098607;28;20098;-82
2022/02/27 02:47:48;;;;;;;27.20;6.38;;;-1.60;99.90;;;;;;5096160;28;20174;-82
2022/02/27 02:50:35;;;;;;;20.50;5.82;;;-1.60;99.90;;;;;;5096332;28;20155;-83
2022/02/27 02:53:24;;;;;;;19.23;6.25;;;-1.60;99.90;;;;;;5079292;28;20060;-83
2022/02/27 02:56:14;;;;;;;26.73;6.47;;;-1.60;99.90;;;;;;5099249;28;20110;-81
2022/02/27 02:59:24;;;;;;;19.05;6.55;;;-1.70;99.90;;;;;;5085590;28;20109;-81
2022/02/27 03:02:11;;;;;;;22.38;6.97;;;-1.80;99.90;;;;;;5098508;28;20147;-81
2022/02/27 03:04:58;;;;;;;27.95;7.38;;;-1.90;99.90;;;;;;5093913;28;20044;-81
2022/02/27 03:07:48;;;;;;;30.40;6.70;;;-1.90;99.90;;;;;;5096349;28;20044;-83
2022/02/27 03:10:35;;;;;;;25.58;7.00;;;-1.90;99.90;;;;;;5096091;28;20102;-82
2022/02/27 03:13:28;;;;;;;26.90;6.57;;;-1.90;99.90;;;;;;5102384;28;20130;-81
2022/02/27 03:16:16;;;;;;;;;;;-1.90;99.90;;;;;;5082650;28;20122;-82
2022/02/27 03:19:03;;;;;;;15.55;5.60;;;-2.00;99.90;;;;;;5085864;28;19927;-81
2022/02/27 03:21:50;;;;;;;26.50;7.25;;;-2.10;99.90;;;;;;5081027;28;20070;-82
2022/02/27 03:24:39;;;;;;;19.30;7.32;;;-2.20;99.90;;;;;;5093725;28;20156;-82
2022/02/27 03:27:27;;;;;;;20.80;6.75;;;-2.30;99.90;;;;;;5081645;28;20197;-82
2022/02/27 03:30:14;;;;;;;21.70;7.13;;;-2.40;99.90;;;;;;5083755;28;20101;-81
2022/02/27 03:33:03;;;;;;;18.35;7.13;;;-2.40;99.90;;;;;;5096988;28;20475;-83
2022/02/27 03:35:53;;;;;;;17.67;6.72;;;-2.40;99.90;;;;;;5085382;28;20100;-82
2022/02/27 03:38:40;;;;;;;30.98;7.78;;;-2.40;99.90;;;;;;5091057;28;20483;-82
2022/02/27 03:41:27;;;;;;;34.50;7.90;;;-2.40;99.90;;;;;;5096723;28;20185;-82
2022/02/27 03:44:17;;;;;;;19.35;6.95;;;-2.40;99.90;;;;;;5097057;28;20043;-81
2022/02/27 03:47:04;;;;;;;30.00;8.73;;;-2.40;99.90;;;;;;5081830;28;20071;-81
2022/02/27 03:49:53;;;;;;;29.52;7.32;;;-2.40;99.90;;;;;;5096167;28;20097;-83
2022/02/27 03:52:41;;;;;;;24.02;7.97;;;-2.50;99.90;;;;;;5080729;28;20122;-83
2022/02/27 03:55:28;;;;;;;29.63;8.27;;;-2.50;99.90;;;;;;5094308;28;20117;-83
2022/02/27 03:58:18;;;;;;;25.98;8.07;;;-2.60;99.90;;;;;;5092272;28;20109;-82
2022/02/27 04:01:10;;;;;;;33.13;8.45;;;-2.50;99.90;;;;;;5085292;28;20085;-82
2022/02/27 04:04:00;;;;;;;18.92;7.38;;;-2.60;99.90;;;;;;5097831;28;20048;-81
2022/02/27 04:06:47;;;;;;;22.13;7.95;;;-2.50;99.90;;;;;;5103865;28;20102;-82
2022/02/27 04:09:34;;;;;;;22.75;7.85;;;-2.50;99.90;;;;;;5100488;28;20032;-82
2022/02/27 04:12:24;;;;;;;24.17;8.65;;;-2.50;99.90;;;;;;5108615;28;20112;-82
2022/02/27 04:15:11;;;;;;;31.65;9.48;;;-2.40;99.90;;;;;;5105110;28;20353;-82
2022/02/27 04:17:58;;;;;;;27.83;9.93;;;-2.30;99.90;;;;;;5089108;28;20160;-83
2022/02/27 04:20:46;;;;;;;30.90;10.05;;;-2.20;99.90;;;;;;5103432;28;20110;-81
2022/02/27 04:23:33;;;;;;;27.50;9.38;;;-2.20;99.90;;;;;;5098503;28;20048;-81
2022/02/27 04:26:22;;;;;;;27.60;9.50;;;-2.10;99.90;;;;;;5112490;28;20112;-83
2022/02/27 04:29:10;;;;;;;23.63;9.45;;;-2.20;99.90;;;;;;5102436;28;20044;-81
2022/02/27 04:31:57;;;;;;;30.45;10.05;;;-2.20;99.90;;;;;;5098009;28;20123;-81
2022/02/27 04:34:47;;;;;;;27.33;9.38;;;-2.10;99.90;;;;;;5097367;28;20145;-82
2022/02/27 04:37:37;;;;;;;29.33;9.20;;;-2.10;99.90;;;;;;5083488;28;20399;-82
2022/02/27 04:40:28;;;;;;;23.38;9.63;;;-2.10;99.90;;;;;;5104382;28;20052;-82
2022/02/27 04:43:15;;;;;;;34.40;9.95;;;-2.10;99.90;;;;;;5098331;28;20047;-81
2022/02/27 04:46:02;;;;;;;23.15;8.32;;;-2.00;99.90;;;;;;5101618;28;20123;-81
2022/02/27 04:48:51;;;;;;;22.83;8.95;;;-2.10;99.90;;;;;;5100815;28;20094;-81
2022/02/27 04:51:40;;;;;;;32.47;10.20;;;-2.10;99.90;;;;;;5104078;28;20077;-81
2022/02/27 04:54:28;;;;;;;35.90;10.20;;;-2.00;99.90;;;;;;5100827;28;20066;-81
2022/02/27 04:57:15;;;;;;;30.15;10.35;;;-2.00;99.90;;;;;;5097911;28;20047;-82
2022/02/27 05:00:07;;;;;;;25.98;9.90;;;-2.00;99.90;;;;;;5098330;28;20490;-81
2022/02/27 05:02:55;;;;;;;31.45;9.90;;;-2.00;99.90;;;;;;5109529;28;20035;-82
2022/02/27 05:05:43;;;;;;;28.90;9.35;;;-1.90;99.90;;;;;;5082644;28;20055;-82
2022/02/27 05:08:30;;;;;;;36.55;10.30;;;-1.90;99.90;;;;;;5097890;28;20040;-81
2022/02/27 05:11:19;;;;;;;23.35;9.40;;;-1.90;99.90;;;;;;5077779;28;20050;-82
2022/02/27 05:14:07;;;;;;;25.90;8.75;;;-1.90;99.90;;;;;;5087911;28;20194;-82
2022/02/27 05:16:54;;;;;;;25.55;10.60;;;-1.90;99.90;;;;;;5079406;28;20097;-82
2022/02/27 05:19:41;;;;;;;33.70;9.57;;;-1.90;99.90;;;;;;5103636;28;20048;-82
2022/02/27 05:22:28;;;;;;;25.88;10.60;;;-1.90;99.90;;;;;;5084456;28;20173;-81
2022/02/27 05:25:19;;;;;;;38.63;10.70;;;-1.90;99.90;;;;;;5097589;28;20044;-80
2022/02/27 05:28:06;;;;;;;23.10;11.07;;;-1.90;99.90;;;;;;5096524;28;20396;-81
2022/02/27 05:30:55;;;;;;;35.78;12.05;;;-1.90;99.90;;;;;;5087584;28;20962;-82
2022/02/27 05:33:44;;;;;;;26.40;11.13;;;-1.90;99.90;;;;;;5097653;28;20128;-81
2022/02/27 05:36:34;;;;;;;34.00;12.02;;;-1.90;99.90;;;;;;5097116;28;20607;-81
2022/02/27 05:39:21;;;;;;;39.60;11.38;;;-1.90;99.90;;;;;;5101082;28;20462;-81
2022/02/27 05:42:11;;;;;;;35.35;11.88;;;-1.80;99.90;;;;;;5101591;28;20333;-80
2022/02/27 05:45:00;;;;;;;41.85;11.85;;;-1.80;99.90;;;;;;5099589;28;20047;-81
2022/02/27 05:47:47;;;;;;;34.20;11.80;;;-1.90;99.90;;;;;;5095105;28;20151;-81
2022/02/27 05:50:35;;;;;;;33.13;12.10;;;-1.90;99.90;;;;;;5083745;28;20441;-82
2022/02/27 05:53:24;;;;;;;33.83;11.70;;;-1.90;99.90;;;;;;5102042;28;20071;-80
2022/02/27 05:56:13;;;;;;;42.97;12.18;;;-1.90;99.90;;;;;;5098955;28;20074;-81
2022/02/27 05:59:01;;;;;;;34.60;13.45;;;-1.90;99.90;;;;;;5096691;28;20044;-82
2022/02/27 06:01:52;;;;;;;35.97;12.68;;;-1.90;99.90;;;;;;5094434;28;20117;-81
2022/02/27 06:04:39;;;;;;;29.23;12.07;;;-1.90;99.90;;;;;;5098258;28;20364;-81
2022/02/27 06:07:26;;;;;;;30.52;11.93;;;-1.90;99.90;;;;;;5093944;28;20363;-82
2022/02/27 06:10:15;;;;;;;40.67;12.65;;;-1.80;99.90;;;;;;5079263;28;20738;-82
2022/02/27 06:13:02;;;;;;;50.75;15.23;;;-1.80;99.90;;;;;;5099239;28;20093;-83
2022/02/27 06:15:50;;;;;;;31.60;14.18;;;-1.80;99.90;;;;;;5108572;28;20101;-81
2022/02/27 06:18:37;;;;;;;29.45;12.43;;;-1.80;99.90;;;;;;5094169;28;20047;-82
2022/02/27 06:21:25;;;;;;;41.95;14.05;;;-1.80;99.90;;;;;;5082801;28;20173;-82
2022/02/27 06:24:12;;;;;;;32.40;13.13;;;-1.80;99.90;;;;;;5079750;28;20102;-81
2022/02/27 06:26:59;;;;;;;37.45;13.52;;;-1.80;99.90;;;;;;5093157;28;20165;-82
2022/02/27 06:29:49;;;;;;;33.63;12.88;;;-1.90;99.90;;;;;;5093141;28;20036;-81
2022/02/27 06:32:37;;;;;;;36.63;13.35;;;-2.00;99.90;;;;;;5099104;28;20039;-83
2022/02/27 06:35:24;;;;;;;29.35;13.05;;;-2.10;99.90;;;;;;5095944;28;20137;-82
2022/02/27 06:38:14;;;;;;;32.55;14.13;;;-2.00;99.90;;;;;;5097781;28;20135;-83
2022/02/27 06:41:01;;;;;;;36.17;13.88;;;-2.00;99.90;;;;;;5084843;28;20048;-84
2022/02/27 06:43:48;;;;;;;38.28;14.30;;;-2.00;99.90;;;;;;5094337;28;20040;-80
2022/02/27 06:46:40;;;;;;;30.75;12.98;;;-1.90;99.90;;;;;;5089709;28;20159;-81
2022/02/27 06:49:30;;;;;;;32.28;14.18;;;-1.90;99.90;;;;;;5083839;28;20655;-82
2022/02/27 06:52:19;;;;;;;38.17;15.07;;;-1.80;99.90;;;;;;5092741;28;20047;-81
2022/02/27 06:55:07;;;;;;;31.38;14.02;;;-1.60;99.90;;;;;;5082396;28;20122;-82
2022/02/27 06:57:54;;;;;;;40.35;15.07;;;-1.30;99.90;;;;;;5097212;28;20105;-80
2022/02/27 07:00:42;;;;;;;32.45;15.23;;;-0.90;99.90;;;;;;5093759;28;20238;-83
2022/02/27 07:03:31;;;;;;;38.15;14.95;;;-0.60;99.90;;;;;;5102540;28;20058;-82
2022/02/27 07:06:18;;;;;;;34.60;13.65;;;-0.30;99.90;;;;;;5082384;28;20067;-83
2022/02/27 07:09:06;;;;;;;29.50;12.70;;;0.00;99.90;;;;;;5099276;28;20086;-82
2022/02/27 07:11:54;;;;;;;27.25;11.75;;;0.20;99.90;;;;;;5094500;28;20147;-81
2022/02/27 07:14:42;;;;;;;25.05;10.75;;;0.30;99.90;;;;;;5099493;28;20091;-81
2022/02/27 07:17:30;;;;;;;18.65;9.60;;;0.30;99.90;;;;;;5083001;28;20621;-82
2022/02/27 07:24:36;;;;;;;22.38;9.73;;;0.60;99.90;;;;;;5015629;28;20106;-83
2022/02/27 07:28:27;;;;;;;25.55;10.60;;;0.60;99.90;;;;;;5090585;28;20043;-82
2022/02/27 07:31:25;;;;;;;19.17;9.10;;;0.70;99.90;;;;;;5096749;28;20056;-83
2022/02/27 07:34:47;;;;;;;24.83;8.82;;;1.10;99.90;;;;;;5077704;28;20332;-82
2022/02/27 07:50:24;;;;;;;17.20;8.05;;;2.50;1.80;;;;;;4928910;29;20299;-80
2022/02/27 07:57:18;;;;;;;18.95;9.55;;;2.70;99.90;;;;;;5095117;28;20063;-84
2022/02/27 08:00:06;;;;;;;21.38;9.90;;;2.40;99.90;;;;;;5088168;28;20052;-83
2022/02/27 08:02:54;;;;;;;21.88;9.75;;;2.20;1.00;;;;;;5084995;28;20039;-83
2022/02/27 08:05:51;;;;;;;21.73;11.38;;;2.00;1.00;;;;;;5077060;28;20839;-83
2022/02/27 08:08:39;;;;;;;22.92;9.32;;;2.10;99.90;;;;;;5094454;28;20040;-84
2022/02/27 08:11:26;;;;;;;17.23;9.05;;;2.40;99.90;;;;;;5082580;28;20039;-84
2022/02/27 08:14:18;;;;;;;20.67;9.38;;;2.50;1.00;;;;;;5087384;28;20513;-84
2022/02/27 08:17:05;;;;;;;15.25;7.40;;;2.90;1.00;;;;;;5104702;28;20047;-83
2022/02/27 08:19:53;;;;;;;14.93;9.07;;;3.30;99.90;;;;;;5091935;28;20047;-83
2022/02/27 08:22:40;;;;;;;19.23;9.18;;;3.20;60.70;;;;;;5094357;28;20430;-84
2022/02/27 08:25:30;;;;;;;15.27;8.05;;;3.10;1.00;;;;;;5095994;28;20071;-84
2022/02/27 08:28:17;;;;;;;15.70;8.57;;;3.50;1.00;;;;;;5077873;28;20051;-84
2022/02/27 08:31:04;;;;;;;15.23;8.32;;;4.00;99.90;;;;;;5091345;28;20044;-84
2022/02/27 08:34:14;;;;;;;18.17;7.68;;;4.10;99.90;;;;;;5093070;28;20486;-84
2022/02/27 08:37:18;;;;;;;12.48;7.63;;;4.60;99.90;;;;;;5081826;28;20131;-84
2022/02/27 08:40:20;;;;;;;17.10;8.10;;;4.90;1.00;;;;;;5083143;28;20051;-85
2022/02/27 08:43:07;;;;;;;16.30;8.10;;;4.60;99.90;;;;;;5082251;28;20036;-83
2022/02/27 08:46:12;;;;;;;16.70;7.70;;;4.60;99.90;;;;;;5081250;28;20153;-85
2022/02/27 08:49:33;;;;;;;16.08;7.32;;;4.80;1.00;;;;;;5078429;28;20674;-84
2022/02/27 08:52:51;;;;;;;19.55;7.90;;;4.60;99.90;;;;;;5097775;28;20096;-83
2022/02/27 08:55:40;;;;;;;18.17;8.30;;;4.70;1.00;;;;;;5115081;28;20063;-83
2022/02/27 08:58:34;;;;;;;14.52;7.65;;;4.90;23.10;;;;;;5091136;28;20044;-83
2022/02/27 09:01:39;;;;;;;15.20;7.82;;;4.80;99.90;;;;;;5081880;28;20472;-83
2022/02/27 09:04:27;;;;;;;12.07;6.88;;;4.90;1.00;;;;;;5087233;28;20043;-85
2022/02/27 09:07:26;;;;;;;14.07;7.18;;;5.10;99.90;;;;;;5102944;28;20052;-86
2022/02/27 09:10:16;;;;;;;12.15;6.80;;;5.00;99.90;;;;;;5106345;28;20062;-82
2022/02/27 09:13:03;;;;;;;14.70;5.65;;;5.50;99.90;;;;;;5087485;28;20456;-84
2022/02/27 09:15:50;;;;;;;11.20;6.38;;;6.10;1.00;;;;;;5104354;28;20189;-85
2022/02/27 09:18:49;;;;;;;11.55;5.95;;;5.70;1.00;;;;;;5096532;28;20085;-83
2022/02/27 09:21:48;;;;;;;11.15;5.45;;;5.90;1.00;;;;;;5105594;27;20051;-84
2022/02/27 09:24:35;;;;;;;14.95;6.43;;;5.90;1.00;;;;;;5089819;28;20362;-84
2022/02/27 09:32:18;;;;;;;10.98;5.25;;;6.60;1.00;;;;;;5005641;28;20045;-85
2022/02/27 09:44:03;;;;;;;10.30;3.90;;;8.50;1.00;;;;;;5092531;28;20361;-88
2022/02/27 09:56:53;;;;;;;5.80;3.50;;;9.90;99.90;;;;;;4838773;29;20069;-85
2022/02/27 10:00:37;;;;;;;7.57;3.50;;;10.30;99.90;;;;;;4833051;29;20061;-88
2022/02/27 10:03:29;;;;;;;6.30;3.50;;;10.00;99.90;;;;;;4939943;28;20091;-87
2022/02/27 10:06:26;;;;;;;7.78;3.72;;;10.70;99.90;;;;;;5011659;28;20065;-87
2022/02/27 10:09:24;;;;;;;6.40;3.80;;;10.80;99.90;;;;;;5009364;28;20109;-86
2022/02/27 10:12:16;;;;;;;6.97;3.63;;;11.30;99.90;;;;;;5023292;28;20049;-86
2022/02/27 10:15:09;;;;;;;7.18;3.38;;;11.20;99.90;;;;;;5023003;28;20079;-87
2022/02/27 10:17:56;;;;;;;9.13;3.83;;;10.70;99.90;;;;;;5027746;28;20151;-85
2022/02/27 10:20:44;;;;;;;6.63;3.65;;;10.90;1.00;;;;;;5025546;28;20041;-85
2022/02/27 10:23:37;;;;;;;4.03;2.92;;;10.70;1.00;;;;;;5036035;28;20048;-85
2022/02/27 10:26:25;;;;;;;7.72;3.40;;;11.10;1.00;;;;;;5110383;28;20110;-86
2022/02/27 10:29:22;;;;;;;5.78;3.30;;;12.10;1.00;;;;;;5110395;28;20055;-85
2022/02/27 10:32:09;;;;;;;5.35;3.15;;;12.50;1.00;;;;;;5091939;28;20494;-85
2022/02/27 10:35:06;;;;;;;5.90;3.45;;;12.30;1.00;;;;;;5079385;28;20066;-86
2022/02/27 10:37:53;;;;;;;6.13;3.50;;;11.80;1.00;;;;;;5109612;28;20115;-85
2022/02/27 10:40:50;;;;;;;5.53;3.05;;;11.40;1.00;;;;;;5106545;28;20551;-85
2022/02/27 10:43:42;;;;;;;4.60;3.00;;;11.70;1.00;;;;;;5078982;28;20169;-87
2022/02/27 10:46:33;;;;;;;8.88;2.70;;;11.40;99.90;;;;;;5090871;28;20436;-87
2022/02/27 10:49:32;;;;;;;3.13;2.70;;;11.10;99.90;;;;;;5098726;28;20039;-87
2022/02/27 10:52:24;;;;;;;3.17;2.38;;;11.40;99.90;;;;;;5096599;28;20044;-86
2022/02/27 10:55:12;;;;;;;3.65;2.35;;;11.30;99.90;;;;;;5107274;28;20464;-84
2022/02/27 10:58:01;;;;;;;6.97;3.28;;;11.50;99.90;;;;;;5088378;28;20040;-90
2022/02/27 11:00:48;;;;;;;3.70;2.63;;;11.50;99.90;;;;;;5094892;28;20704;-86
2022/02/27 11:03:38;;;;;;;5.03;2.70;;;11.10;99.90;;;;;;5078693;28;20072;-86
2022/02/27 11:06:26;;;;;;;4.60;2.63;;;11.40;99.90;;;;;;5097957;28;20044;-86
2022/02/27 11:09:13;;;;;;;4.95;2.67;;;11.80;99.90;;;;;;5105017;28;20063;-87
2022/02/27 11:12:04;;;;;;;3.25;2.40;;;11.30;99.90;;;;;;5095479;28;20048;-84
2022/02/27 11:14:54;;;;;;;4.47;2.83;;;11.30;99.90;;;;;;5113215;28;20071;-84
2022/02/27 11:17:44;;;;;;;5.50;2.63;;;11.50;99.90;;;;;;5104304;28;20040;-82
2022/02/27 11:20:34;;;;;;;4.72;2.88;;;11.60;99.90;;;;;;5092810;28;20048;-84
2022/02/27 11:23:21;;;;;;;5.68;2.90;;;11.80;99.90;;;;;;5100992;28;20059;-86
2022/02/27 11:26:10;;;;;;;5.30;3.22;;;12.00;99.90;;;;;;5089985;28;20079;-86
2022/02/27 11:28:57;;;;;;;5.40;3.30;;;12.50;99.90;;;;;;5079635;28;20047;-85
2022/02/27 11:31:45;;;;;;;8.45;4.05;;;11.70;99.90;;;;;;5079666;28;20040;-86
2022/02/27 11:34:42;;;;;;;4.90;2.70;;;11.60;99.90;;;;;;5091952;28;20127;-85
2022/02/27 11:37:49;;;;;;;7.25;2.90;;;11.50;99.90;;;;;;5092872;28;20040;-86
2022/02/27 11:40:50;;;;;;;6.28;3.65;;;11.50;99.90;;;;;;5111926;28;20112;-85
2022/02/27 11:43:52;;;;;;;6.43;3.75;;;11.70;99.90;;;;;;5100261;28;20494;-85
2022/02/27 11:46:43;;;;;;;5.40;3.70;;;10.80;99.90;;;;;;5112891;28;20047;-86
2022/02/27 11:49:32;;;;;;;6.32;3.88;;;10.50;99.90;;;;;;5086163;28;20044;-87
2022/02/27 11:52:34;;;;;;;6.90;4.03;;;10.50;99.90;;;;;;5100390;28;20102;-86
2022/02/27 11:55:54;;;;;;;5.95;3.60;;;11.80;99.90;;;;;;5103938;28;20145;-87
2022/02/27 11:58:44;;;;;;;5.43;3.25;;;13.00;99.90;;;;;;5094038;28;20131;-85
2022/02/27 12:01:46;;;;;;;8.05;3.97;;;11.80;99.90;;;;;;5111872;28;20349;-84
2022/02/27 12:04:33;;;;;;;5.97;3.97;;;11.70;99.90;;;;;;5111295;28;20404;-84
2022/02/27 12:07:21;;;;;;;6.53;4.15;;;12.10;99.90;;;;;;5095263;28;20356;-86
2022/02/27 12:10:09;;;;;;;6.13;3.97;;;12.30;99.90;;;;;;5080680;28;20134;-86
2022/02/27 12:12:56;;;;;;;9.55;4.10;;;12.40;99.90;;;;;;5097657;28;20040;-85
2022/02/27 12:15:44;;;;;;;5.88;3.67;;;12.00;99.90;;;;;;5092007;28;20445;-86
2022/02/27 12:18:56;;;;;;;7.22;4.03;;;12.00;99.90;;;;;;5091091;28;20085;-87
2022/02/27 12:21:46;;;;;;;7.25;3.78;;;12.40;99.90;;;;;;5093737;28;20055;-90
2022/02/27 12:24:37;;;;;;;7.78;4.55;;;13.10;99.90;;;;;;5097794;28;20047;-87
2022/02/27 12:27:40;;;;;;;5.15;3.97;;;13.60;99.90;;;;;;5101912;28;20098;-89
2022/02/27 12:30:35;;;;;;;7.55;4.05;;;12.90;99.90;;;;;;5099638;28;20122;-87
2022/02/27 12:33:27;;;;;;;5.30;3.90;;;13.10;99.90;;;;;;5088007;28;20044;-87
2022/02/27 12:36:35;;;;;;;5.97;4.20;;;13.50;99.90;;;;;;5110676;28;20184;-87
2022/02/27 12:40:13;;;;;;;7.72;4.35;;;12.20;99.90;;;;;;5129803;28;20050;-88
2022/02/27 12:43:13;;;;;;;8.48;4.25;;;12.20;99.90;;;;;;5104570;28;20048;-88
2022/02/27 12:46:03;;;;;;;5.93;3.42;;;12.50;99.90;;;;;;5098285;28;20084;-84
2022/02/27 12:52:00;;;;;;;6.15;3.60;;;13.00;99.90;;;;;;5116528;28;20055;-86
2022/02/27 12:54:52;;;;;;;6.50;3.97;;;13.50;99.90;;;;;;5097305;27;20370;-84
2022/02/27 12:57:55;;;;;;;8.07;3.53;;;13.00;99.90;;;;;;5086753;28;20044;-83
2022/02/27 13:00:42;;;;;;;8.23;3.95;;;13.60;99.90;;;;;;5108347;28;20040;-83
2022/02/27 13:03:32;;;;;;;7.93;3.95;;;13.70;99.90;;;;;;5095196;28;20040;-85
2022/02/27 13:06:22;;;;;;;6.28;3.40;;;12.70;99.90;;;;;;5099221;28;20142;-86
2022/02/27 13:09:12;;;;;;;6.00;3.45;;;12.60;99.90;;;;;;5103065;28;20487;-85
2022/02/27 13:12:06;;;;;;;7.15;3.47;;;12.30;99.90;;;;;;5104077;28;20047;-86
2022/02/27 13:14:58;;;;;;;4.43;2.75;;;11.90;99.90;;;;;;5086134;28;20048;-87
2022/02/27 13:17:49;;;;;;;4.95;3.40;;;12.60;1.00;;;;;;5085848;28;20040;-86
2022/02/27 13:20:36;;;;;;;6.35;3.60;;;12.20;1.00;;;;;;5086719;28;20056;-86
2022/02/27 13:23:28;;;;;;;6.25;3.72;;;12.00;1.00;;;;;;5092425;28;20079;-86
2022/02/27 13:26:17;;;;;;;6.77;3.30;;;11.70;1.00;;;;;;5098054;28;20051;-88
2022/02/27 13:29:08;;;;;;;6.68;3.53;;;12.50;1.00;;;;;;5105359;28;20335;-88
2022/02/27 13:31:59;;;;;;;7.25;4.38;;;13.00;1.00;;;;;;5110305;28;20095;-87
2022/02/27 13:34:50;;;;;;;;;;;12.80;1.00;;;;;;5103331;28;20058;-87
2022/02/27 13:37:41;;;;;;;5.70;3.80;;;12.80;1.00;;;;;;5098913;28;19919;-87
2022/02/27 13:40:34;;;;;;;7.32;3.65;;;12.80;1.00;;;;;;5113453;28;20103;-86
2022/02/27 13:43:26;;;;;;;7.20;3.42;;;13.80;1.00;;;;;;5110203;28;20035;-89
2022/02/27 13:46:19;;;;;;;5.28;3.47;;;13.90;1.00;;;;;;5088478;28;20097;-88
2022/02/27 13:49:14;;;;;;;5.20;3.20;;;13.30;1.00;;;;;;5093634;28;20031;-88
2022/02/27 13:52:05;;;;;;;7.53;3.97;;;12.50;1.00;;;;;;5080827;28;20072;-88
2022/02/27 13:54:56;;;;;;;5.55;3.42;;;12.20;1.00;;;;;;5083968;28;20208;-88
2022/02/27 13:57:43;;;;;;;7.82;4.13;;;12.80;1.00;;;;;;5103594;28;20696;-85
2022/02/27 14:00:34;;;;;;;7.00;4.30;;;12.70;1.00;;;;;;5080886;28;20097;-85
2022/02/27 14:03:39;;;;;;;5.50;3.90;;;12.80;1.00;;;;;;5095694;28;20128;-82
2022/02/27 14:06:32;;;;;;;8.70;3.95;;;13.00;1.00;;;;;;5095704;28;20040;-85
2022/02/27 14:09:24;;;;;;;6.90;4.20;;;12.40;1.00;;;;;;5101773;28;20044;-88
2022/02/27 14:12:12;;;;;;;7.05;3.92;;;12.10;1.00;;;;;;5103826;28;20039;-87
2022/02/27 14:14:59;;;;;;;7.35;3.90;;;12.50;1.00;;;;;;5100871;28;20156;-87
2022/02/27 14:17:47;;;;;;;7.28;4.10;;;12.70;1.00;;;;;;5094570;28;20159;-87
2022/02/27 14:20:34;;;;;;;6.90;4.30;;;12.50;1.00;;;;;;5109462;28;20048;-87
2022/02/27 14:23:32;;;;;;;8.45;4.13;;;11.80;1.00;;;;;;5083061;28;20127;-86
2022/02/27 14:26:26;;;;;;;5.88;3.70;;;11.90;1.00;;;;;;5100681;28;20579;-86
2022/02/27 14:29:16;;;;;;;6.72;4.13;;;12.00;1.00;;;;;;5098778;28;20445;-85
2022/02/27 14:32:28;;;;;;;6.15;4.05;;;12.30;1.00;;;;;;5082771;28;20032;-83
2022/02/27 14:35:21;;;;;;;5.43;4.13;;;12.20;99.90;;;;;;5084563;28;20097;-87
2022/02/27 14:38:11;;;;;;;5.13;3.70;;;11.90;99.90;;;;;;5070073;28;20173;-85
2022/02/27 14:41:02;;;;;;;7.68;4.45;;;11.10;99.90;;;;;;5085549;28;20067;-87
2022/02/27 14:43:49;;;;;;;10.10;3.60;;;11.30;99.90;;;;;;5104529;28;20386;-86
2022/02/27 14:46:41;;;;;;;7.82;3.90;;;11.90;99.90;;;;;;5082111;28;20052;-88
2022/02/27 14:49:28;;;;;;;6.97;4.05;;;11.90;99.90;;;;;;5103761;28;20341;-87
2022/02/27 14:53:06;;;;;;;7.95;4.03;;;12.00;99.90;;;;;;5084132;28;20036;-84
2022/02/27 14:55:57;;;;;;;5.75;3.70;;;12.60;99.90;;;;;;5088580;28;20048;-85
2022/02/27 14:58:44;;;;;;;7.32;4.30;;;12.20;1.00;;;;;;5097461;28;20134;-87
2022/02/27 15:01:31;;;;;;;6.85;4.03;;;11.90;99.90;;;;;;5085940;28;20044;-86
2022/02/27 15:04:19;;;;;;;6.78;4.00;;;11.20;99.90;;;;;;5092878;28;20098;-85
2022/02/27 15:07:18;;;;;;;7.30;3.88;;;11.00;99.90;;;;;;5100116;28;20055;-88
2022/02/27 15:10:06;;;;;;;4.55;3.45;;;11.20;99.90;;;;;;5106763;28;20043;-88
2022/02/27 15:12:55;;;;;;;7.00;4.20;;;10.90;99.90;;;;;;5116230;28;20051;-85
2022/02/27 15:15:42;;;;;;;6.15;3.55;;;10.90;99.90;;;;;;5102860;28;20089;-86
2022/02/27 15:18:29;;;;;;;5.55;3.80;;;10.90;99.90;;;;;;5086737;28;20063;-86
2022/02/27 15:21:17;;;;;;;6.68;3.58;;;10.90;99.90;;;;;;5099545;28;20558;-85
2022/02/27 15:24:05;;;;;;;7.30;3.70;;;11.20;99.90;;;;;;5093033;28;20055;-86
2022/02/27 15:35:22;;;;;;;6.78;3.85;;;11.00;99.90;;;;;;5008404;28;20045;-87
2022/02/27 15:38:09;;;;;;;6.05;3.40;;;11.00;99.90;;;;;;5096643;28;20110;-84
2022/02/27 15:40:56;;;;;;;6.40;3.60;;;10.80;99.90;;;;;;5095521;28;20047;-85
2022/02/27 15:43:46;;;;;;;6.70;3.50;;;10.20;99.90;;;;;;5104106;27;20040;-86